Time;durP1;ratioP1;P1;durP2;ratioP2;P2;SDS_P1;SDS_P2;PMS_P1;PMS_P2;Temp;Humidity;BMP_temperature;BMP_pressure;BME280_temperature;BME280_humidity;BME280_pressure;Samples;Min_cycle;Max_cycle;Signal;HPM_P1;HPM_P2
2024/04/10 05:13:58;;;;;;;;;;;;;;;5.20;100.00;100672.31;5362186;21;20361;-80
2024/04/10 05:16:23;;;;;;;;;;;;;;;5.19;100.00;100675.78;5296992;26;19930;-81
2024/04/10 05:18:49;;;;;;;;;;;;;;;5.23;100.00;100679.28;5327213;26;19930;-81
2024/04/10 05:21:14;;;;;;;;;;;;;;;5.22;100.00;100677.53;5327472;26;19937;-85
2024/04/10 05:23:39;;;;;;;;;;;;;;;5.18;100.00;100678.44;5297228;26;19940;-82
2024/04/10 05:26:04;;;;;;;;;;;;;;;5.18;100.00;100681.06;5326881;26;20001;-83
2024/04/10 05:28:30;;;;;;;;;;;;;;;5.20;100.00;100687.16;5327592;26;19942;-79
2024/04/10 05:31:02;;;;;;;;;;;;;;;5.20;100.00;100693.31;5330782;26;20000;-83
2024/04/10 05:33:28;;;;;;;;;;;;;;;5.22;100.00;100695.94;5329975;26;19938;-84
2024/04/10 05:36:03;;;;;;;;;;;;;;;5.19;100.00;100706.47;5330302;26;19958;-84
2024/04/10 05:38:29;;;;;;;;;;;;;;;5.19;100.00;100707.31;5299485;26;19930;-80
2024/04/10 05:40:54;;;;;;;;;;;;;;;5.22;100.00;100706.44;5328645;26;19958;-80
2024/04/10 05:43:20;;;;;;;;;;;;;;;5.28;100.00;100720.41;5327866;26;19937;-79
2024/04/10 05:45:45;;;;;;;;;;;;;;;5.23;100.00;100721.31;5330482;26;19930;-79
2024/04/10 05:48:10;;;;;;;;;;;;;;;5.24;100.00;100718.69;5330289;26;19990;-83
2024/04/10 05:50:35;;;;;;;;;;;;;;;5.28;100.00;100720.41;5328441;26;20411;-81
2024/04/10 05:53:01;;;;;;;;;;;;;;;5.26;100.00;100719.56;5300133;26;19937;-83
2024/04/10 05:55:27;;;;;;;;;;;;;;;5.20;100.00;100713.44;5300649;26;19930;-83
2024/04/10 05:57:52;;;;;;;;;;;;;;;5.26;100.00;100721.28;5328641;26;20273;-84
2024/04/10 06:00:17;;;;;;;;;;;;;;;5.34;100.00;100726.50;5329975;26;19945;-83
2024/04/10 06:02:44;;;;;;;;;;;;;;;5.27;100.00;100721.28;5329508;26;20354;-82
2024/04/10 06:05:09;;;;;;;;;;;;;;;5.33;100.00;100724.75;5329486;26;19937;-83
2024/04/10 06:07:37;;;;;;;;;;;;;;;5.31;100.00;100727.38;5329297;26;19946;-83
2024/04/10 06:10:04;;;;;;;;;;;;;;;5.38;100.00;100726.47;5329760;26;19954;-81
2024/04/10 06:12:30;;;;;;;;;;;;;;;5.37;100.00;100731.75;5329191;26;19977;-82
2024/04/10 06:14:55;;;;;;;;;;;;;;;5.39;100.00;100736.13;5330067;26;19931;-84
2024/04/10 06:17:21;;;;;;;;;;;;;;;5.37;100.00;100740.50;5329198;26;19943;-82
2024/04/10 06:19:47;;;;;;;;;;;;;;;5.44;100.00;100742.22;5329464;26;19999;-81
2024/04/10 06:22:12;;;;;;;;;;;;;;;5.40;100.00;100743.09;5330203;26;19930;-80
2024/04/10 06:24:37;;;;;;;;;;;;;;;5.45;100.00;100751.81;5329730;26;20322;-80
2024/04/10 06:27:03;;;;;;;;;;;;;;;5.45;100.00;100743.94;5327797;26;19942;-79
2024/04/10 06:29:29;;;;;;;;;;;;;;;5.41;100.00;100752.75;5329650;26;19937;-83
2024/04/10 06:31:54;;;;;;;;;;;;;;;5.43;100.00;100747.47;5298596;26;19931;-79
2024/04/10 06:34:19;;;;;;;;;;;;;;;5.52;100.00;100757.06;5299222;26;20311;-79
2024/04/10 06:36:45;;;;;;;;;;;;;;;5.55;100.00;100757.94;5299587;26;19937;-84
2024/04/10 06:39:10;;;;;;;;;;;;;;;5.37;100.00;100758.91;5328925;26;19930;-83
2024/04/10 06:41:36;;;;;;;;;;;;;;;5.42;100.00;100751.84;5327831;26;20000;-83
2024/04/10 06:44:01;;;;;;;;;;;;;;;5.48;100.00;100764.09;5329607;26;19937;-82
2024/04/10 06:46:26;;;;;;;;;;;;;;;5.45;100.00;100767.59;5329734;26;20005;-84
2024/04/10 06:48:51;;;;;;;;;;;;;;;5.51;100.00;100766.72;5329011;26;20366;-84
2024/04/10 06:51:17;;;;;;;;;;;;;;;5.61;100.00;100771.00;5328939;26;19942;-82
2024/04/10 06:53:42;;;;;;;;;;;;;;;5.51;100.00;100771.97;5329530;26;19930;-82
2024/04/10 06:56:08;;;;;;;;;;;;;;;5.56;100.00;100779.81;5271106;26;19939;-82
2024/04/10 06:58:34;;;;;;;;;;;;;;;5.43;100.00;100782.50;5311468;26;20254;-82
2024/04/10 07:01:03;;;;;;;;;;;;;;;5.50;100.00;100795.63;5329079;26;19999;-81
2024/04/10 07:03:30;;;;;;;;;;;;;;;5.44;100.00;100793.91;5329640;26;20366;-79
2024/04/10 07:06:02;;;;;;;;;;;;;;;5.49;100.00;100797.41;5328746;26;20285;-81
2024/04/10 07:08:27;;;;;;;;;;;;;;;5.58;100.00;100794.69;5312476;26;19937;-85
2024/04/10 07:10:53;;;;;;;;;;;;;;;5.57;100.00;100797.34;5342476;26;19930;-84
2024/04/10 07:13:18;;;;;;;;;;;;;;;5.51;100.00;100803.50;5327369;26;19942;-81
2024/04/10 07:59:50;;;;;;;;;;;;;;;5.68;100.00;100845.50;5478316;21;20357;-91
2024/04/10 08:02:15;;;;;;;;;;;;;;;5.72;100.00;100843.72;5342258;26;19930;-83
2024/04/10 08:04:40;;;;;;;;;;;;;;;5.68;100.00;100831.44;5327956;26;19931;-83
2024/04/10 08:07:06;;;;;;;;;;;;;;;5.71;100.00;100844.56;5328021;26;20264;-84
2024/04/10 08:09:31;;;;;;;;;;;;;;;5.69;100.00;100846.34;5328706;26;20284;-83
2024/04/10 08:13:35;;;;;;;;;;;;;;;5.69;100.00;100859.50;5523624;25;20330;-81
2024/04/10 08:16:04;;;;;;;;;;;;;;;5.61;100.00;100851.66;5524405;25;19936;-84
2024/04/10 08:18:30;;;;;;;;;;;;;;;5.73;100.00;100853.34;5526066;25;19934;-83
2024/04/10 08:21:00;;;;;;;;;;;;;;;5.90;100.00;100864.63;5525439;25;19928;-84
2024/04/10 08:23:25;;;;;;;;;;;;;;;5.77;100.00;100873.47;5525193;25;19935;-84
2024/04/10 08:25:50;;;;;;;;;;;;;;;12.85;100.00;100841.47;5526139;25;20401;-84
2024/04/10 08:28:17;;;;;;;;;;;;;;;15.32;100.00;100826.19;5521865;25;19934;-85
2024/04/10 08:30:43;;;;;;;;;;;;;;;15.71;100.00;100830.59;5525058;25;19928;-87
2024/04/10 08:33:08;;;;;;;;;;;;;;;15.66;100.00;100837.97;5525540;25;19934;-85
2024/04/10 08:35:34;;;;;;;;;;;;;;;15.90;100.00;100837.75;5525591;25;19927;-84
2024/04/10 08:37:59;;;;;;;;;;;;;;;16.08;100.00;100847.56;5515162;25;19973;-87
2024/04/10 08:40:25;;;;;;;;;;;;;;;12.30;100.00;100854.88;5524722;25;19934;-86
2024/04/10 08:42:51;;;;;;;;;;;;;;;10.54;100.00;100864.41;5522533;25;19939;-86
2024/04/10 08:45:16;;;;;;;;;;;;;;;9.84;100.00;100872.22;5523317;25;19996;-87
2024/04/10 08:47:42;;;;;;;;;;;;;;;9.36;100.00;100882.06;5522222;25;20374;-88
2024/04/10 08:50:10;;;;;;;;;;;;;;;9.13;100.00;100874.59;5523032;25;19935;-90
2024/04/10 08:52:37;;;;;;;;;;;;;;;8.92;100.00;100873.25;5523496;25;20002;-86
2024/04/10 08:55:02;;;;;;;;;;;;;;;8.67;100.00;100880.72;5520590;25;20345;-87
2024/04/10 08:57:30;;;;;;;;;;;;;;;8.64;100.00;100884.28;5524599;25;20386;-87
2024/04/10 08:59:55;;;;;;;;;;;;;;;8.54;100.00;100888.88;5524218;25;19999;-87
2024/04/10 09:02:22;;;;;;;;;;;;;;;8.53;100.00;100889.75;5524903;25;21108;-87
2024/04/10 09:04:47;;;;;;;;;;;;;;;8.39;100.00;100885.56;5524563;25;19931;-85
2024/04/10 09:07:16;;;;;;;;;;;;;;;8.29;100.00;100884.84;5522772;25;19928;-87
2024/04/10 09:09:41;;;;;;;;;;;;;;;8.26;100.00;100898.09;5524943;25;19933;-84
2024/04/10 09:12:07;;;;;;;;;;;;;;;8.22;100.00;100888.47;5524850;25;19927;-86
2024/04/10 09:14:32;;;;;;;;;;;;;;;8.21;100.00;100892.03;5520997;25;19936;-85
2024/04/10 09:17:01;;;;;;;;;;;;;;;8.18;100.00;100888.53;5522598;25;19995;-85
2024/04/10 09:19:26;;;;;;;;;;;;;;;8.16;100.00;100886.81;5520762;25;19971;-87
2024/04/10 09:21:56;;;;;;;;;;;;;;;8.32;100.00;100883.03;5522268;25;19976;-86
2024/04/10 09:24:24;;;;;;;;;;;;;;;8.44;100.00;100886.41;5511047;25;20000;-87
2024/04/10 09:26:50;;;;;;;;;;;;;;;8.29;100.00;100879.56;5506737;26;19936;-84
2024/04/10 09:29:19;;;;;;;;;;;;;;;8.41;100.00;100889.94;5507879;26;19928;-87
2024/04/10 09:31:47;;;;;;;;;;;;;;;8.39;100.00;100886.44;5508088;25;19927;-87
2024/04/10 09:34:14;;;;;;;;;;;;;;;8.41;100.00;100891.69;5508174;25;19928;-88
2024/04/10 09:36:40;;;;;;;;;;;;;;;8.28;100.00;100893.66;5506389;26;20359;-86
2024/04/10 09:39:07;;;;;;;;;;;;;;;8.53;100.00;100892.38;5506367;26;19956;-85
2024/04/10 09:41:34;;;;;;;;;;;;;;;8.57;100.00;100887.06;5508831;26;20366;-88
2024/04/10 09:43:59;;;;;;;;;;;;;;;8.45;100.00;100881.09;5507227;25;19996;-87
2024/04/10 09:46:33;;;;;;;;;;;;;;;8.46;100.00;100882.84;5508195;26;19927;-88
2024/04/10 09:49:01;;;;;;;;;;;;;;;8.48;100.00;100878.41;5506696;25;20358;-86
2024/04/10 09:51:26;;;;;;;;;;;;;;;8.35;100.00;100892.69;5509153;25;19928;-83
2024/04/10 09:53:52;;;;;;;;;;;;;;;8.35;100.00;100887.41;5508665;25;19934;-84
2024/04/10 09:56:18;;;;;;;;;;;;;;;8.33;100.00;100876.84;5507635;25;20366;-87
2024/04/10 09:58:47;;;;;;;;;;;;;;;8.42;100.00;100886.38;5504681;25;19934;-87
2024/04/10 10:01:12;;;;;;;;;;;;;;;8.40;100.00;100890.81;5507832;25;20373;-86
2024/04/10 10:03:37;;;;;;;;;;;;;;;8.48;100.00;100886.31;5507430;26;19927;-86
2024/04/10 10:06:04;;;;;;;;;;;;;;;8.47;100.00;100888.97;5506323;26;19928;-87
2024/04/10 10:08:30;;;;;;;;;;;;;;;8.52;100.00;100887.13;5505737;26;20011;-86
2024/04/10 10:10:56;;;;;;;;;;;;;;;8.31;100.00;100883.94;5508522;26;19931;-87
2024/04/10 10:13:25;;;;;;;;;;;;;;;8.48;100.00;100883.69;5506700;25;20003;-85
2024/04/10 10:15:58;;;;;;;;;;;;;;;8.39;100.00;100890.84;5506729;25;19927;-86
2024/04/10 10:18:23;;;;;;;;;;;;;;;8.14;100.00;100892.13;5506299;26;20571;-86
2024/04/10 10:20:59;;;;;;;;;;;;;;;8.19;100.00;100898.19;5502840;26;19928;-86
2024/04/10 10:23:24;;;;;;;;;;;;;;;8.21;100.00;100902.59;5505680;25;20042;-87
2024/04/10 10:25:49;;;;;;;;;;;;;;;8.26;100.00;100900.75;5507394;25;20021;-87
2024/04/10 10:28:15;;;;;;;;;;;;;;;8.42;100.00;100896.09;5504173;25;20335;-83
2024/04/10 10:30:40;;;;;;;;;;;;;;;8.48;100.00;100901.31;5506686;26;19928;-85
2024/04/10 10:33:06;;;;;;;;;;;;;;;8.57;100.00;100905.56;5505174;26;19927;-86
2024/04/10 10:35:32;;;;;;;;;;;;;;;8.48;100.00;100910.09;5507739;26;19939;-85
2024/04/10 10:37:57;;;;;;;;;;;;;;;8.31;100.00;100914.75;5507324;25;19934;-86
2024/04/10 10:40:24;;;;;;;;;;;;;;;8.21;100.00;100915.78;5508123;25;19927;-85
2024/04/10 10:42:58;;;;;;;;;;;;;;;8.35;100.00;100912.03;5503721;26;19928;-85
2024/04/10 10:45:23;;;;;;;;;;;;;;;8.47;100.00;100913.66;5506557;25;19928;-86
2024/04/10 10:47:49;;;;;;;;;;;;;;;8.28;100.00;100913.03;5507830;25;20233;-85
2024/04/10 10:50:14;;;;;;;;;;;;;;;8.16;100.00;100906.16;5507643;25;19927;-84
2024/04/10 10:52:40;;;;;;;;;;;;;;;8.21;100.00;100905.22;5505197;25;19928;-86
2024/04/10 10:55:13;;;;;;;;;;;;;;;8.43;100.00;100905.78;5507159;25;20259;-84
2024/04/10 10:57:38;;;;;;;;;;;;;;;8.48;100.00;100903.94;5505890;25;19928;-87
2024/04/10 11:00:16;;;;;;;;;;;;;;;8.32;100.00;100901.50;5504896;25;20271;-82
2024/04/10 11:02:42;;;;;;;;;;;;;;;8.29;100.00;100905.97;5505410;25;19928;-85
2024/04/10 11:05:12;;;;;;;;;;;;;;;8.25;100.00;100909.53;5507137;25;19934;-86
2024/04/10 11:07:37;;;;;;;;;;;;;;;8.49;100.00;100903.94;5505551;25;20022;-85
2024/04/10 11:10:09;;;;;;;;;;;;;;;8.45;100.00;100907.50;5506673;25;19939;-85
2024/04/10 11:12:34;;;;;;;;;;;;;;;8.60;100.00;100903.75;5503602;25;19995;-85
2024/04/10 11:15:10;;;;;;;;;;;;;;;8.61;100.00;100894.03;5505184;26;19939;-86
2024/04/10 11:17:35;;;;;;;;;;;;;;;8.54;100.00;100896.78;5503807;25;19938;-87
2024/04/10 11:20:06;;;;;;;;;;;;;;;8.63;100.00;100909.00;5507407;26;20354;-88
2024/04/10 11:22:32;;;;;;;;;;;;;;;8.58;100.00;100896.75;5507490;25;19927;-86
2024/04/10 11:24:57;;;;;;;;;;;;;;;8.52;100.00;100903.88;5507563;25;19943;-85
2024/04/10 11:27:22;;;;;;;;;;;;;;;8.58;100.00;100896.75;5506606;25;19928;-85
2024/04/10 11:29:48;;;;;;;;;;;;;;;8.45;100.00;100896.94;5505039;25;19943;-87
2024/04/10 11:32:13;;;;;;;;;;;;;;;8.42;100.00;100896.09;5503122;26;19927;-85
2024/04/10 11:34:39;;;;;;;;;;;;;;;8.50;100.00;100894.22;5506515;25;19934;-87
2024/04/10 11:37:05;;;;;;;;;;;;;;;8.65;100.00;100893.97;5506161;25;20290;-85
2024/04/10 11:39:30;;;;;;;;;;;;;;;8.68;100.00;100885.09;5504855;26;19928;-86
2024/04/10 11:41:58;;;;;;;;;;;;;;;8.57;100.00;100890.59;5505971;26;19928;-86
2024/04/10 11:44:25;;;;;;;;;;;;;;;8.49;100.00;100893.34;5503746;25;19938;-85
2024/04/10 11:46:51;;;;;;;;;;;;;;;8.58;100.00;100881.75;5506070;26;19940;-85
2024/04/10 11:49:16;;;;;;;;;;;;;;;8.42;100.00;100888.16;5504099;26;19995;-87
2024/04/10 11:51:41;;;;;;;;;;;;;;;8.60;100.00;100890.53;5504806;25;19975;-85
2024/04/10 11:54:06;;;;;;;;;;;;;;;8.63;100.00;100890.50;5507184;26;19935;-86
2024/04/10 11:56:32;;;;;;;;;;;;;;;8.63;100.00;100884.31;5506022;25;19935;-85
2024/04/10 11:58:58;;;;;;;;;;;;;;;8.56;100.00;100877.41;5502518;26;19938;-85
2024/04/10 12:01:24;;;;;;;;;;;;;;;8.61;100.00;100891.41;5506691;26;20366;-85
2024/04/10 12:03:49;;;;;;;;;;;;;;;8.50;100.00;100895.13;5506890;26;19928;-86
2024/04/10 12:06:14;;;;;;;;;;;;;;;8.63;100.00;100895.78;5506059;26;19939;-86
2024/04/10 12:08:39;;;;;;;;;;;;;;;8.43;100.00;100900.47;5506028;25;19928;-86
2024/04/10 12:11:05;;;;;;;;;;;;;;;8.40;100.00;100898.75;5506251;26;19928;-84
2024/04/10 12:13:30;;;;;;;;;;;;;;;8.39;100.00;100896.13;5504779;26;19927;-87
2024/04/10 12:15:55;;;;;;;;;;;;;;;8.39;100.00;100899.63;5505607;26;19928;-86
2024/04/10 12:18:21;;;;;;;;;;;;;;;8.62;100.00;100893.16;5505971;26;20259;-86
2024/04/10 12:20:46;;;;;;;;;;;;;;;8.28;100.00;100899.84;5505874;25;19939;-85
2024/04/10 12:23:11;;;;;;;;;;;;;;;8.43;100.00;100893.47;5505808;25;20354;-86
2024/04/10 12:25:36;;;;;;;;;;;;;;;8.50;100.00;100894.22;5506508;25;19996;-86
2024/04/10 12:28:02;;;;;;;;;;;;;;;8.63;100.00;100884.31;5504532;26;19934;-87
2024/04/10 12:30:27;;;;;;;;;;;;;;;8.53;100.00;100883.59;5503984;25;19928;-86
2024/04/10 12:32:53;;;;;;;;;;;;;;;8.63;100.00;100879.03;5506043;25;19927;-86
2024/04/10 12:38:02;;;;;;;;;;;;;;;8.59;100.00;100887.94;5506014;25;19934;-87
2024/04/10 12:40:27;;;;;;;;;;;;;;;8.69;100.00;100889.50;5505152;25;19928;-86
2024/04/10 12:42:53;;;;;;;;;;;;;;;8.72;100.00;100894.72;5503850;25;19934;-87
2024/04/10 12:45:18;;;;;;;;;;;;;;;8.61;100.00;100896.69;5506336;25;20262;-87
2024/04/10 12:47:43;;;;;;;;;;;;;;;8.69;100.00;100892.13;5505588;25;19928;-87
2024/04/10 12:50:08;;;;;;;;;;;;;;;8.66;100.00;100897.47;5505054;25;19928;-87
2024/04/10 12:52:35;;;;;;;;;;;;;;;8.53;100.00;100894.16;5505051;25;19927;-87
2024/04/10 12:55:00;;;;;;;;;;;;;;;8.66;100.00;100895.72;5503043;26;20038;-88
2024/04/10 12:57:25;;;;;;;;;;;;;;;8.39;100.00;100902.28;5503345;25;19927;-88
2024/04/10 12:59:52;;;;;;;;;;;;;;;8.43;100.00;100898.75;5507387;26;19928;-84
2024/04/10 13:02:18;;;;;;;;;;;;;;;8.33;100.00;100897.13;5508926;26;19951;-86
2024/04/10 13:04:46;;;;;;;;;;;;;;;8.44;100.00;100897.84;5508659;26;19935;-87
2024/04/10 13:07:13;;;;;;;;;;;;;;;8.34;100.00;100898.84;5504326;26;19928;-87
2024/04/10 13:09:38;;;;;;;;;;;;;;;8.31;100.00;100893.59;5506674;25;19936;-87
2024/04/10 13:12:03;;;;;;;;;;;;;;;8.33;100.00;100897.13;5508480;26;20003;-88
2024/04/10 13:14:29;;;;;;;;;;;;;;;8.34;100.00;100894.47;5505195;26;20379;-84
2024/04/10 13:16:54;;;;;;;;;;;;;;;8.39;100.00;100890.84;5509175;26;19934;-86
2024/04/10 13:19:19;;;;;;;;;;;;;;;8.32;100.00;100895.38;5508565;25;20366;-87
2024/04/10 13:21:44;;;;;;;;;;;;;;;8.27;100.00;100907.78;5508549;26;19928;-88
2024/04/10 13:24:10;;;;;;;;;;;;;;;8.29;100.00;100903.34;5508290;26;19943;-84
2024/04/10 13:26:35;;;;;;;;;;;;;;;8.28;100.00;100901.59;5509072;26;19935;-86
2024/04/10 13:29:00;;;;;;;;;;;;;;;8.25;100.00;100905.16;5507073;25;20263;-88
2024/04/10 13:31:25;;;;;;;;;;;;;;;8.30;100.00;100908.59;5508149;26;19928;-86
2024/04/10 13:33:51;;;;;;;;;;;;;;;8.33;100.00;100910.31;5508748;26;19943;-88
2024/04/10 13:36:18;;;;;;;;;;;;;;;8.29;100.00;100913.91;5508787;25;20011;-86
2024/04/10 13:38:48;;;;;;;;;;;;;;;8.47;100.00;100905.72;5506428;26;19928;-88
2024/04/10 13:41:14;;;;;;;;;;;;;;;8.45;100.00;100918.06;5506399;25;20258;-88
2024/04/10 13:43:40;;;;;;;;;;;;;;;8.37;100.00;100910.22;5506511;25;20370;-88
2024/04/10 13:46:06;;;;;;;;;;;;;;;8.34;100.00;100914.69;5509087;25;19932;-89
2024/04/10 13:48:31;;;;;;;;;;;;;;;8.27;100.00;100913.91;5506071;25;19934;-87
2024/04/10 13:50:57;;;;;;;;;;;;;;;8.27;100.00;100913.06;5508099;25;20340;-87
2024/04/10 13:53:22;;;;;;;;;;;;;;;8.34;100.00;100914.69;5508376;25;19959;-88
2024/04/10 13:55:47;;;;;;;;;;;;;;;8.44;100.00;100915.44;5508564;25;19996;-81
2024/04/10 13:58:13;;;;;;;;;;;;;;;8.34;100.00;100919.97;5506456;25;19939;-87
2024/04/10 14:00:38;;;;;;;;;;;;;;;8.33;100.00;100908.53;5507724;25;19934;-88
2024/04/10 14:03:05;;;;;;;;;;;;;;;8.25;100.00;100904.25;5508835;26;19967;-85
2024/04/10 14:05:31;;;;;;;;;;;;;;;8.21;100.00;100907.88;5508009;25;19936;-84
2024/04/10 14:07:56;;;;;;;;;;;;;;;8.36;100.00;100897.06;5507456;26;20269;-84
2024/04/10 14:10:22;;;;;;;;;;;;;;;8.34;100.00;100901.50;5507572;26;19928;-86
2024/04/10 14:12:48;;;;;;;;;;;;;;;8.30;100.00;100898.03;5505604;25;20362;-87
2024/04/10 14:15:14;;;;;;;;;;;;;;;8.28;100.00;100899.84;5508173;26;19927;-88
2024/04/10 14:17:40;;;;;;;;;;;;;;;8.30;100.00;100899.81;5506593;26;19931;-87
2024/04/10 14:20:10;;;;;;;;;;;;;;;8.29;100.00;100898.06;5507581;25;19928;-82
2024/04/10 14:22:36;;;;;;;;;;;;;;;8.23;100.00;100900.78;5508017;25;19956;-87
2024/04/10 14:25:01;;;;;;;;;;;;;;;8.27;100.00;100902.50;5506815;25;20266;-83
2024/04/10 14:27:26;;;;;;;;;;;;;;;8.31;100.00;100904.16;5508449;25;19927;-90
2024/04/10 14:29:52;;;;;;;;;;;;;;;8.31;100.00;100906.81;5504750;25;19935;-89
2024/04/10 14:32:18;;;;;;;;;;;;;;;8.24;100.00;100902.53;5505984;25;19934;-88
2024/04/10 14:34:43;;;;;;;;;;;;;;;8.34;100.00;100905.03;5508143;25;19927;-89
2024/04/10 14:37:08;;;;;;;;;;;;;;;8.25;100.00;100902.53;5507965;25;19935;-88
2024/04/10 14:39:34;;;;;;;;;;;;;;;8.24;100.00;100902.53;5507282;25;19935;-84
2024/04/10 14:42:00;;;;;;;;;;;;;;;8.27;100.00;100906.00;5507072;25;19927;-85
2024/04/10 14:44:37;;;;;;;;;;;;;;;8.24;100.00;100913.97;5506005;25;19928;-88
2024/04/10 14:47:03;;;;;;;;;;;;;;;8.24;100.00;100915.75;5508166;25;19934;-84
2024/04/10 14:49:28;;;;;;;;;;;;;;;8.24;100.00;100916.59;5506157;26;19927;-84
2024/04/10 14:51:53;;;;;;;;;;;;;;;8.28;100.00;100909.50;5507446;26;20299;-86
2024/04/10 14:54:18;;;;;;;;;;;;;;;8.45;100.00;100911.91;5506826;25;19956;-85
2024/04/10 14:56:43;;;;;;;;;;;;;;;8.52;100.00;100909.16;5507079;25;19931;-84
2024/04/10 14:59:09;;;;;;;;;;;;;;;8.33;100.00;100910.31;5503790;25;19935;-87
2024/04/10 15:01:34;;;;;;;;;;;;;;;8.50;100.00;100916.25;5505094;25;19934;-86
2024/04/10 15:03:59;;;;;;;;;;;;;;;8.42;100.00;100918.06;5506308;25;20366;-90
2024/04/10 15:06:24;;;;;;;;;;;;;;;8.45;100.00;100918.06;5505529;26;19928;-88
2024/04/10 15:08:50;;;;;;;;;;;;;;;11.89;100.00;100896.03;5504391;25;19944;-85
2024/04/10 15:11:19;;;;;;;;;;;;;;;10.14;100.00;100908.59;5506875;25;19955;-86
2024/04/10 15:13:44;;;;;;;;;;;;;;;9.11;100.00;100912.53;5505774;25;19934;-86
2024/04/10 15:16:10;;;;;;;;;;;;;;;8.80;100.00;100910.44;5506660;25;19936;-85
2024/04/10 15:18:35;;;;;;;;;;;;;;;8.66;100.00;100910.69;5506848;25;19934;-86
2024/04/10 15:21:01;;;;;;;;;;;;;;;8.46;100.00;100909.25;5506514;26;19928;-84
2024/04/10 15:23:26;;;;;;;;;;;;;;;8.46;100.00;100913.69;5499788;25;19928;-92
2024/04/10 15:25:52;;;;;;;;;;;;;;;8.44;100.00;100916.34;5505081;25;19927;-88
2024/04/10 15:28:17;;;;;;;;;;;;;;;8.46;100.00;100913.69;5501893;25;19927;-84
2024/04/10 15:30:43;;;;;;;;;;;;;;;8.41;100.00;100910.19;5506561;25;20549;-84
2024/04/10 15:33:08;;;;;;;;;;;;;;;8.41;100.00;100911.06;5506729;25;20255;-88
2024/04/10 15:35:34;;;;;;;;;;;;;;;8.43;100.00;100906.66;5505623;25;19928;-87
2024/04/10 15:37:59;;;;;;;;;;;;;;;8.50;100.00;100910.97;5505534;26;19927;-82
2024/04/10 15:40:24;;;;;;;;;;;;;;;8.48;100.00;100915.38;5507205;25;19935;-88
2024/04/10 15:42:50;;;;;;;;;;;;;;;8.44;100.00;100918.09;5503793;26;19927;-86
2024/04/10 15:45:16;;;;;;;;;;;;;;;8.45;100.00;100909.28;5505199;25;19935;-85
2024/04/10 15:47:41;;;;;;;;;;;;;;;8.44;100.00;100907.53;5503413;25;19927;-84
2024/04/10 15:50:07;;;;;;;;;;;;;;;8.47;100.00;100911.00;5505946;25;19928;-82
2024/04/10 15:52:33;;;;;;;;;;;;;;;8.38;100.00;100911.13;5507074;26;19955;-82
2024/04/10 15:54:58;;;;;;;;;;;;;;;8.43;100.00;100919.88;5504734;25;19939;-83
2024/04/10 15:57:23;;;;;;;;;;;;;;;8.39;100.00;100917.25;5504105;25;19936;-81
2024/04/10 15:59:48;;;;;;;;;;;;;;;8.41;100.00;100921.63;5502818;25;19934;-81
2024/04/10 16:02:14;;;;;;;;;;;;;;;8.47;100.00;100920.69;5505515;26;19927;-83
2024/04/10 16:04:40;;;;;;;;;;;;;;;8.32;100.00;100920.00;5504215;25;19928;-86
2024/04/10 16:07:05;;;;;;;;;;;;;;;8.42;100.00;100917.22;5505576;26;19934;-82
2024/04/10 16:09:31;;;;;;;;;;;;;;;8.35;100.00;100916.44;5504594;26;19928;-83
2024/04/10 16:11:56;;;;;;;;;;;;;;;8.35;100.00;100922.59;5506336;26;19957;-83
2024/04/10 16:14:21;;;;;;;;;;;;;;;8.37;100.00;100919.94;5504819;25;19996;-83
2024/04/10 16:16:46;;;;;;;;;;;;;;;8.32;100.00;100924.41;5505820;25;20334;-85
2024/04/10 16:19:12;;;;;;;;;;;;;;;8.34;100.00;100920.88;5505772;26;20333;-83
2024/04/10 16:21:37;;;;;;;;;;;;;;;8.36;100.00;100918.19;5502124;26;19927;-85
2024/04/10 16:24:06;;;;;;;;;;;;;;;8.30;100.00;100915.66;5504369;26;19927;-83
2024/04/10 16:26:31;;;;;;;;;;;;;;;8.28;100.00;100915.69;5505610;25;19995;-82
2024/04/10 16:28:57;;;;;;;;;;;;;;;8.35;100.00;100921.72;5502008;25;19932;-83
2024/04/10 16:31:22;;;;;;;;;;;;;;;8.32;100.00;100916.50;5505215;26;19928;-83
2024/04/10 16:33:48;;;;;;;;;;;;;;;8.36;100.00;100918.19;5505641;25;21019;-84
2024/04/10 16:36:14;;;;;;;;;;;;;;;8.30;100.00;100923.56;5505256;25;19928;-87
2024/04/10 16:38:39;;;;;;;;;;;;;;;8.38;100.00;100919.03;5509575;25;20438;-83
2024/04/10 16:41:05;;;;;;;;;;;;;;;8.55;100.00;100913.50;5488501;25;19935;-83
2024/04/10 16:43:30;;;;;;;;;;;;;;;8.59;100.00;100919.63;5469733;26;19935;-86
2024/04/10 16:45:57;;;;;;;;;;;;;;;8.59;100.00;100923.13;5472025;26;19929;-86
2024/04/10 16:48:22;;;;;;;;;;;;;;;8.44;100.00;100926.91;5470010;26;19935;-85
2024/04/10 16:50:57;;;;;;;;;;;;;;;8.39;100.00;100928.69;5473989;26;19927;-86
2024/04/10 16:53:23;;;;;;;;;;;;;;;8.32;100.00;100919.13;5469989;26;20363;-91
2024/04/10 16:55:49;;;;;;;;;;;;;;;8.28;100.00;100922.72;5469556;26;20004;-86
2024/04/10 16:58:14;;;;;;;;;;;;;;;8.23;100.00;100929.81;5469472;26;19952;-84
2024/04/10 17:00:40;;;;;;;;;;;;;;;8.19;100.00;100927.22;5469508;26;19928;-88
2024/04/10 17:03:08;;;;;;;;;;;;;;;8.21;100.00;100931.63;5485377;26;19927;-84
2024/04/10 17:05:37;;;;;;;;;;;;;;;8.19;100.00;100929.88;5470976;26;19936;-84
2024/04/10 17:08:02;;;;;;;;;;;;;;;8.24;100.00;100928.94;5472367;26;20267;-86
2024/04/10 17:10:28;;;;;;;;;;;;;;;8.23;100.00;100932.47;5467620;26;19928;-87
2024/04/10 17:12:53;;;;;;;;;;;;;;;8.28;100.00;100936.81;5469092;26;20360;-89
2024/04/10 17:15:19;;;;;;;;;;;;;;;8.29;100.00;100932.38;5467852;26;19936;-85
2024/04/10 17:23:12;;;;;;;;;;;;;;;8.27;100.00;100940.31;5470933;26;20378;-85
2024/04/10 17:25:40;;;;;;;;;;;;;;;8.25;100.00;100934.22;5471637;26;19929;-86
2024/04/10 17:28:05;;;;;;;;;;;;;;;8.24;100.00;100950.06;5470244;26;19928;-87
2024/04/10 17:30:30;;;;;;;;;;;;;;;8.22;100.00;100950.09;5469400;26;20348;-83
2024/04/10 17:32:56;;;;;;;;;;;;;;;8.23;100.00;100949.19;5468166;26;20283;-84
2024/04/10 17:35:21;;;;;;;;;;;;;;;8.24;100.00;100953.56;5470316;26;20476;-86
2024/04/10 17:37:50;;;;;;;;;;;;;;;8.33;100.00;100960.50;5471172;26;20016;-85
2024/04/10 17:40:15;;;;;;;;;;;;;;;8.34;100.00;100967.50;5471565;26;19935;-81
2024/04/10 17:42:42;;;;;;;;;;;;;;;8.28;100.00;100971.13;5469824;26;19929;-83
2024/04/10 17:45:08;;;;;;;;;;;;;;;8.25;100.00;100968.53;5470707;26;19928;-80
2024/04/10 17:47:33;;;;;;;;;;;;;;;8.37;100.00;100970.09;5471349;26;20115;-80
2024/04/10 17:49:58;;;;;;;;;;;;;;;8.37;100.00;100972.75;5471645;26;19935;-84
2024/04/10 17:52:23;;;;;;;;;;;;;;;8.30;100.00;100974.63;5469970;26;19931;-84
2024/04/10 17:54:49;;;;;;;;;;;;;;;8.30;100.00;100981.66;5469778;26;20003;-87
2024/04/10 17:57:14;;;;;;;;;;;;;;;8.40;100.00;100985.91;5470245;26;20348;-83
2024/04/10 17:59:39;;;;;;;;;;;;;;;8.26;100.00;100980.81;5468973;26;20354;-85
2024/04/10 18:02:05;;;;;;;;;;;;;;;8.25;100.00;100987.00;5470315;26;20413;-85
2024/04/10 18:04:30;;;;;;;;;;;;;;;8.26;100.00;100990.53;5471032;26;20325;-90
2024/04/10 18:06:55;;;;;;;;;;;;;;;8.29;100.00;100988.69;5462558;26;19940;-92
2024/04/10 18:09:20;;;;;;;;;;;;;;;8.24;100.00;100994.97;5468450;26;20287;-89
2024/04/10 18:11:46;;;;;;;;;;;;;;;8.29;100.00;101003.69;5470408;26;20025;-91
2024/04/10 18:14:11;;;;;;;;;;;;;;;8.30;100.00;101005.44;5460225;26;19936;-84
2024/04/10 18:16:36;;;;;;;;;;;;;;;8.27;100.00;101002.84;5470803;26;20406;-83
2024/04/10 18:19:03;;;;;;;;;;;;;;;8.22;100.00;101002.00;5471172;26;19940;-82
2024/04/10 18:21:28;;;;;;;;;;;;;;;8.21;100.00;101000.28;5471077;26;19940;-85
2024/04/10 18:23:55;;;;;;;;;;;;;;;8.23;100.00;101009.03;5467816;26;19928;-92
2024/04/10 18:26:20;;;;;;;;;;;;;;;8.17;100.00;101016.16;5468976;26;20355;-89
2024/04/10 18:28:45;;;;;;;;;;;;;;;8.22;100.00;101021.38;5467151;26;19927;-82
2024/04/10 18:31:10;;;;;;;;;;;;;;;8.23;100.00;101022.25;5470731;26;19940;-88
2024/04/10 18:33:36;;;;;;;;;;;;;;;8.31;100.00;101021.25;5467920;26;19944;-81
2024/04/10 18:36:06;;;;;;;;;;;;;;;8.25;100.00;101023.09;5470643;26;19935;-85